Time;durP1;ratioP1;P1;durP2;ratioP2;P2;SDS_P1;SDS_P2;PMS_P1;PMS_P2;Temp;Humidity;BMP_temperature;BMP_pressure;BME280_temperature;BME280_humidity;BME280_pressure;Samples;Min_cycle;Max_cycle;Signal;HPM_P1;HPM_P2
2021/01/20 00:01:38;;;;;;;2.1;1.9;;;;;;;;;;;;;
2021/01/20 00:04:03;;;;;;;5.1;2.7;;;;;;;;;;;;;
2021/01/20 00:06:28;;;;;;;2.6;1.9;;;;;;;;;;;;;
2021/01/20 00:08:53;;;;;;;3.9;1.9;;;;;;;;;;;;;
2021/01/20 00:11:25;;;;;;;3.2;2.3;;;;;;;;;;;;;
2021/01/20 00:13:56;;;;;;;1.8;1.4;;;;;;;;;;;;;
2021/01/20 00:16:22;;;;;;;2.4;1.7;;;;;;;;;;;;;
2021/01/20 00:18:47;;;;;;;2.4;1.6;;;;;;;;;;;;;
2021/01/20 00:21:13;;;;;;;3.6;2.1;;;;;;;;;;;;;
2021/01/20 00:23:38;;;;;;;4.9;2.8;;;;;;;;;;;;;
2021/01/20 00:26:04;;;;;;;3.9;2.6;;;;;;;;;;;;;
2021/01/20 00:28:29;;;;;;;2;1.7;;;;;;;;;;;;;
2021/01/20 00:30:56;;;;;;;3.8;2.5;;;;;;;;;;;;;
2021/01/20 00:33:19;;;;;;;5.7;2.5;;;;;;;;;;;;;
2021/01/20 00:35:45;;;;;;;3.2;2;;;;;;;;;;;;;
2021/01/20 00:38:11;;;;;;;2.7;2;;;;;;;;;;;;;
2021/01/20 00:40:37;;;;;;;2.1;1.4;;;;;;;;;;;;;
2021/01/20 00:43:02;;;;;;;2.5;1.5;;;;;;;;;;;;;
2021/01/20 00:45:27;;;;;;;3.5;1.8;;;;;;;;;;;;;
2021/01/20 00:47:55;;;;;;;2;1.2;;;;;;;;;;;;;
2021/01/20 00:50:20;;;;;;;3.7;2.2;;;;;;;;;;;;;
2021/01/20 00:52:46;;;;;;;3.1;1.7;;;;;;;;;;;;;
2021/01/20 00:55:12;;;;;;;2.9;2;;;;;;;;;;;;;
2021/01/20 00:57:37;;;;;;;2.2;1.8;;;;;;;;;;;;;
2021/01/20 01:00:02;;;;;;;2.1;1.4;;;;;;;;;;;;;
2021/01/20 01:02:32;;;;;;;2.9;1.5;;;;;;;;;;;;;
2021/01/20 01:05:01;;;;;;;1.8;1.4;;;;;;;;;;;;;
2021/01/20 01:07:26;;;;;;;2.8;1.4;;;;;;;;;;;;;
2021/01/20 01:09:52;;;;;;;2.2;1.6;;;;;;;;;;;;;
2021/01/20 01:12:17;;;;;;;3.8;1.6;;;;;;;;;;;;;
2021/01/20 01:14:43;;;;;;;3.5;1.8;;;;;;;;;;;;;
2021/01/20 01:17:08;;;;;;;3;1.8;;;;;;;;;;;;;
2021/01/20 01:19:33;;;;;;;3.2;2.2;;;;;;;;;;;;;
2021/01/20 01:21:58;;;;;;;3.5;1.7;;;;;;;;;;;;;
2021/01/20 01:24:26;;;;;;;4.6;1.7;;;;;;;;;;;;;
2021/01/20 01:26:51;;;;;;;2;1.8;;;;;;;;;;;;;
2021/01/20 01:29:16;;;;;;;2;1.5;;;;;;;;;;;;;
2021/01/20 01:31:42;;;;;;;2.4;1.9;;;;;;;;;;;;;
2021/01/20 01:34:07;;;;;;;2.6;1.4;;;;;;;;;;;;;
2021/01/20 01:36:33;;;;;;;3.6;2;;;;;;;;;;;;;
2021/01/20 01:38:58;;;;;;;1.5;0.8;;;;;;;;;;;;;
2021/01/20 01:41:23;;;;;;;1.8;1.2;;;;;;;;;;;;;
2021/01/20 01:43:50;;;;;;;1.9;1.3;;;;;;;;;;;;;
2021/01/20 01:46:15;;;;;;;0.7;0.6;;;;;;;;;;;;;
2021/01/20 01:48:40;;;;;;;1;0.8;;;;;;;;;;;;;
2021/01/20 01:51:05;;;;;;;1.6;1.3;;;;;;;;;;;;;
2021/01/20 01:53:34;;;;;;;0.7;0.7;;;;;;;;;;;;;
2021/01/20 01:55:59;;;;;;;0.9;0.7;;;;;;;;;;;;;
2021/01/20 01:58:24;;;;;;;3.1;1;;;;;;;;;;;;;
2021/01/20 02:00:50;;;;;;;1.6;1.4;;;;;;;;;;;;;
2021/01/20 02:03:15;;;;;;;1.6;1.2;;;;;;;;;;;;;
2021/01/20 02:05:40;;;;;;;4.3;1.4;;;;;;;;;;;;;
2021/01/20 02:08:05;;;;;;;1.4;1.3;;;;;;;;;;;;;
2021/01/20 02:10:31;;;;;;;1.2;1.1;;;;;;;;;;;;;
2021/01/20 02:12:58;;;;;;;2.6;1.5;;;;;;;;;;;;;
2021/01/20 02:15:24;;;;;;;3.4;1.1;;;;;;;;;;;;;
2021/01/20 02:17:50;;;;;;;1.4;1.2;;;;;;;;;;;;;
2021/01/20 02:20:15;;;;;;;1.7;1.3;;;;;;;;;;;;;
2021/01/20 02:22:40;;;;;;;0.6;0.6;;;;;;;;;;;;;
2021/01/20 02:25:08;;;;;;;1.3;0.5;;;;;;;;;;;;;
2021/01/20 02:27:33;;;;;;;5;1.3;;;;;;;;;;;;;
2021/01/20 02:29:58;;;;;;;0.8;0.8;;;;;;;;;;;;;
2021/01/20 02:32:24;;;;;;;0.8;0.8;;;;;;;;;;;;;
2021/01/20 02:34:49;;;;;;;1.5;1;;;;;;;;;;;;;
2021/01/20 02:37:16;;;;;;;0.8;0.8;;;;;;;;;;;;;
2021/01/20 02:39:41;;;;;;;0.6;0.5;;;;;;;;;;;;;
2021/01/20 02:42:08;;;;;;;1.1;0.9;;;;;;;;;;;;;
2021/01/20 02:44:33;;;;;;;1.1;0.9;;;;;;;;;;;;;
2021/01/20 02:46:58;;;;;;;3;1.4;;;;;;;;;;;;;
2021/01/20 02:49:23;;;;;;;1.4;1.3;;;;;;;;;;;;;
2021/01/20 02:51:49;;;;;;;2.1;1.1;;;;;;;;;;;;;
2021/01/20 02:54:14;;;;;;;1;0.9;;;;;;;;;;;;;
2021/01/20 02:56:39;;;;;;;0.6;0.6;;;;;;;;;;;;;
2021/01/20 02:59:05;;;;;;;4.4;0.9;;;;;;;;;;;;;
2021/01/20 03:01:31;;;;;;;1.3;0.5;;;;;;;;;;;;;
2021/01/20 03:03:56;;;;;;;1;0.7;;;;;;;;;;;;;
2021/01/20 03:06:23;;;;;;;0.8;0.8;;;;;;;;;;;;;
2021/01/20 03:08:49;;;;;;;1.2;0.8;;;;;;;;;;;;;
2021/01/20 03:11:14;;;;;;;1.3;1.2;;;;;;;;;;;;;
2021/01/20 03:13:39;;;;;;;2.9;1.6;;;;;;;;;;;;;
2021/01/20 03:16:05;;;;;;;1.6;1;;;;;;;;;;;;;
2021/01/20 03:18:30;;;;;;;1.9;0.7;;;;;;;;;;;;;
2021/01/20 03:20:57;;;;;;;2.1;1;;;;;;;;;;;;;
2021/01/20 03:23:22;;;;;;;1.4;0.9;;;;;;;;;;;;;
2021/01/20 03:25:48;;;;;;;0.9;0.8;;;;;;;;;;;;;
2021/01/20 03:28:13;;;;;;;4.9;0.9;;;;;;;;;;;;;
2021/01/20 03:30:38;;;;;;;2;0.9;;;;;;;;;;;;;
2021/01/20 03:33:03;;;;;;;2.4;1.1;;;;;;;;;;;;;
2021/01/20 03:35:29;;;;;;;1.7;0.7;;;;;;;;;;;;;
2021/01/20 03:37:54;;;;;;;1;0.8;;;;;;;;;;;;;
2021/01/20 03:40:22;;;;;;;4.4;1.2;;;;;;;;;;;;;
2021/01/20 03:42:47;;;;;;;0.7;0.6;;;;;;;;;;;;;
2021/01/20 03:45:12;;;;;;;0.8;0.8;;;;;;;;;;;;;
2021/01/20 03:47:38;;;;;;;1;0.5;;;;;;;;;;;;;
2021/01/20 03:50:03;;;;;;;1.1;0.8;;;;;;;;;;;;;
2021/01/20 03:52:28;;;;;;;1.5;0.9;;;;;;;;;;;;;
2021/01/20 03:54:57;;;;;;;0.8;0.8;;;;;;;;;;;;;
2021/01/20 03:57:19;;;;;;;1.9;0.8;;;;;;;;;;;;;
2021/01/20 03:59:46;;;;;;;0.9;0.8;;;;;;;;;;;;;
2021/01/20 04:02:30;;;;;;;0.7;0.7;;;;;;;-1.27;88.30566;934.715;;;;
2021/01/20 04:04:56;;;;;;;1.1;0.8;;;;;;;-1.39;88.72266;934.654;;;;
2021/01/20 04:07:27;;;;;;;0.7;0.6;;;;;;;-1.44;89.7998;934.6638;;;;
2021/01/20 04:09:56;;;;;;;1.3;0.9;;;;;;;-1.53;91.45605;934.6781;;;;
2021/01/20 04:12:21;;;;;;;0.7;0.7;;;;;;;-1.57;91.92578;934.7392;;;;
2021/01/20 04:14:46;;;;;;;0.5;0.5;;;;;;;-1.56;92.62695;934.7056;;;;
2021/01/20 04:17:12;;;;;;;0.2;0.2;;;;;;;-1.46;92.30469;934.6291;;;;
2021/01/20 04:19:39;;;;;;;1.5;1;;;;;;;-1.41;92.11426;934.6844;;;;
2021/01/20 04:22:04;;;;;;;2.2;0.9;;;;;;;-1.36;91.30469;934.7386;;;;
2021/01/20 04:24:32;;;;;;;0.9;0.7;;;;;;;-1.43;90.50098;934.7086;;;;
2021/01/20 04:26:57;;;;;;;2.9;1.2;;;;;;;-1.47;89.92676;934.7978;;;;
2021/01/20 04:29:23;;;;;;;2.7;1.6;;;;;;;-1.59;89.89941;934.6774;;;;
2021/01/20 04:31:48;;;;;;;0.9;0.8;;;;;;;-1.59;90.16797;934.7026;;;;
2021/01/20 04:34:13;;;;;;;1.9;1.1;;;;;;;-1.61;90.27148;934.7704;;;;
2021/01/20 04:36:38;;;;;;;1.9;1.2;;;;;;;-1.71;89.64355;934.78;;;;
2021/01/20 04:39:05;;;;;;;3;1.4;;;;;;;-1.94;89.48047;934.782;;;;
2021/01/20 04:41:30;;;;;;;1;0.9;;;;;;;-1.97;90.15137;934.8148;;;;
2021/01/20 04:43:59;;;;;;;1.6;0.7;;;;;;;-1.9;90.72168;934.8223;;;;
2021/01/20 04:46:25;;;;;;;1.3;0.9;;;;;;;-1.81;90.5166;934.8329;;;;
2021/01/20 04:48:53;;;;;;;1.7;0.9;;;;;;;-1.91;90.46387;934.8197;;;;
2021/01/20 04:51:15;;;;;;;2;1.4;;;;;;;-1.96;91.30859;934.7828;;;;
2021/01/20 04:53:42;;;;;;;3;1.2;;;;;;;-2.03;91.46973;934.7664;;;;
2021/01/20 04:56:07;;;;;;;3.6;0.7;;;;;;;-2.05;91.76563;934.8203;;;;
2021/01/20 04:58:33;;;;;;;1.4;1.2;;;;;;;-1.87;91.30566;934.8709;;;;
2021/01/20 05:00:59;;;;;;;0.7;0.7;;;;;;;-1.74;91.36621;934.9049;;;;
2021/01/20 05:03:26;;;;;;;0.7;0.7;;;;;;;-1.67;92.23633;934.8747;;;;
2021/01/20 05:05:51;;;;;;;1.4;0.7;;;;;;;-1.65;92.28516;934.8514;;;;
2021/01/20 05:08:16;;;;;;;1;0.9;;;;;;;-1.55;92.22949;934.8879;;;;
2021/01/20 05:10:41;;;;;;;4.1;1.2;;;;;;;-1.52;91.03613;934.9609;;;;
2021/01/20 05:13:08;;;;;;;2.8;2.1;;;;;;;-1.66;89.90625;934.9584;;;;
2021/01/20 05:15:33;;;;;;;2.3;1.8;;;;;;;-1.68;89.20605;934.9554;;;;
2021/01/20 05:17:58;;;;;;;1.7;1.6;;;;;;;-1.74;88.74805;934.9626;;;;
2021/01/20 05:20:26;;;;;;;1.1;1;;;;;;;-1.79;89.13672;934.9334;;;;
2021/01/20 05:22:51;;;;;;;0.8;0.8;;;;;;;-1.79;89.71289;934.8625;;;;
2021/01/20 05:25:19;;;;;;;1.6;1.1;;;;;;;-1.72;89.79492;934.9378;;;;
2021/01/20 05:27:49;;;;;;;2.4;1.5;;;;;;;-1.66;90.05273;934.932;;;;
2021/01/20 05:30:15;;;;;;;9.8;3.6;;;;;;;-1.75;89.47852;934.8942;;;;
2021/01/20 05:32:44;;;;;;;3.5;2.5;;;;;;;-1.86;90.23242;934.8808;;;;
2021/01/20 05:35:13;;;;;;;3.3;2.5;;;;;;;-1.85;91.4873;934.9146;;;;
2021/01/20 05:37:38;;;;;;;4.7;2.7;;;;;;;-1.82;91.02734;934.9034;;;;
2021/01/20 05:40:03;;;;;;;4.6;2.8;;;;;;;-1.93;91.29395;934.8383;;;;
2021/01/20 05:42:28;;;;;;;11.4;5.5;;;;;;;-1.85;91.83105;934.9154;;;;
2021/01/20 05:44:57;;;;;;;17.1;10;;;;;;;-1.83;91.29102;934.9376;;;;
2021/01/20 05:47:22;;;;;;;15.2;8.7;;;;;;;-1.88;91.1709;934.9506;;;;
2021/01/20 05:49:47;;;;;;;7.7;3.3;;;;;;;-1.77;90.98145;934.9063;;;;
2021/01/20 05:52:12;;;;;;;6.1;4.3;;;;;;;-1.69;90.63477;934.9028;;;;
2021/01/20 05:54:37;;;;;;;22.3;10.6;;;;;;;-1.57;90.52734;934.9615;;;;
2021/01/20 05:57:07;;;;;;;9.5;5.7;;;;;;;-1.65;90.58691;934.8795;;;;
2021/01/20 05:59:33;;;;;;;5;3.3;;;;;;;-1.63;90.79102;934.8549;;;;
2021/01/20 06:02:01;;;;;;;3.9;2.4;;;;;;;-1.55;90.08691;934.9048;;;;
2021/01/20 06:04:26;;;;;;;1.8;1.2;;;;;;;-1.7;89.92285;934.8764;;;;
2021/01/20 06:06:51;;;;;;;2.4;1.7;;;;;;;-1.7;90.35547;934.8664;;;;
2021/01/20 06:09:16;;;;;;;5.7;3.4;;;;;;;-1.67;90.43945;934.8239;;;;
2021/01/20 06:11:41;;;;;;;1.3;1;;;;;;;-1.69;91.36523;934.8625;;;;
2021/01/20 06:14:06;;;;;;;1.2;1;;;;;;;-1.55;91.04199;934.7621;;;;
2021/01/20 06:16:32;;;;;;;2.6;1.3;;;;;;;-1.66;89.8623;934.8281;;;;
2021/01/20 06:18:57;;;;;;;127.7;57.7;;;;;;;-1.63;89.68164;934.8112;;;;
2021/01/20 06:21:22;;;;;;;22.5;10.1;;;;;;;-1.79;91.24414;934.8016;;;;
2021/01/20 06:23:48;;;;;;;19.8;8.9;;;;;;;-1.63;91.49023;934.7619;;;;
2021/01/20 06:26:13;;;;;;;11.2;7.1;;;;;;;-1.54;91.27637;934.8097;;;;
2021/01/20 06:28:38;;;;;;;3.4;2;;;;;;;-1.54;91.37598;934.7735;;;;
2021/01/20 06:31:04;;;;;;;2.2;1.6;;;;;;;-1.43;90.64551;934.767;;;;
2021/01/20 06:33:28;;;;;;;5;2.7;;;;;;;-1.35;89.92969;934.8016;;;;
2021/01/20 06:35:54;;;;;;;3.7;2.2;;;;;;;-1.25;88.57422;934.7658;;;;
2021/01/20 06:38:19;;;;;;;3.4;1.9;;;;;;;-1.55;88.88867;934.7839;;;;
2021/01/20 06:40:48;;;;;;;1.8;1.6;;;;;;;-1.62;89.04004;934.7427;;;;
2021/01/20 06:43:12;;;;;;;2.4;1.9;;;;;;;-1.53;89.30273;934.7421;;;;
2021/01/20 06:45:38;;;;;;;7.6;4.5;;;;;;;-1.64;88.34766;934.6425;;;;
2021/01/20 06:48:03;;;;;;;4.5;1.5;;;;;;;-1.7;88.7334;934.681;;;;
2021/01/20 06:50:29;;;;;;;1.7;1.4;;;;;;;-1.77;89.79492;934.548;;;;
2021/01/20 06:52:54;;;;;;;3.5;1.9;;;;;;;-1.78;89.44922;934.5516;;;;
2021/01/20 06:55:20;;;;;;;1.7;1.4;;;;;;;-1.75;90.53027;934.4944;;;;
2021/01/20 06:57:46;;;;;;;16.1;6.4;;;;;;;-1.6;89.72266;934.528;;;;
2021/01/20 07:00:11;;;;;;;7.4;3.1;;;;;;;-1.75;89.3457;934.5477;;;;
2021/01/20 07:02:36;;;;;;;2.2;2;;;;;;;-1.86;89.61133;934.5023;;;;
2021/01/20 07:05:03;;;;;;;6.8;3.2;;;;;;;-1.81;89.46484;934.4327;;;;
2021/01/20 07:07:26;;;;;;;5.4;3.5;;;;;;;-1.67;89.03027;934.3769;;;;
2021/01/20 07:09:55;;;;;;;4;2.6;;;;;;;-1.74;89.41406;934.3806;;;;
2021/01/20 07:12:21;;;;;;;7;3.9;;;;;;;-1.66;91.02734;934.3621;;;;
2021/01/20 07:14:45;;;;;;;2.6;1.9;;;;;;;-1.62;90.4707;934.4063;;;;
2021/01/20 07:17:11;;;;;;;4.5;2.5;;;;;;;-1.53;90.15723;934.4024;;;;
2021/01/20 07:19:38;;;;;;;4.3;2.3;;;;;;;-1.43;89.88086;934.3644;;;;
2021/01/20 07:22:04;;;;;;;2.3;1.9;;;;;;;-1.38;87.5127;934.2629;;;;
2021/01/20 07:24:29;;;;;;;4;2.4;;;;;;;-1.58;87.85938;934.361;;;;
2021/01/20 07:26:57;;;;;;;3.7;2.2;;;;;;;-1.42;87.64941;934.3506;;;;
2021/01/20 07:29:23;;;;;;;7.7;3.6;;;;;;;-1.33;88.96582;934.2941;;;;
2021/01/20 07:31:49;;;;;;;8.7;5.1;;;;;;;-1.27;88.16992;934.3502;;;;
2021/01/20 07:34:14;;;;;;;9.9;5.1;;;;;;;-1.19;86.91016;934.3722;;;;
2021/01/20 07:36:39;;;;;;;7.9;3.4;;;;;;;-1.16;85.62695;934.3883;;;;
2021/01/20 07:39:04;;;;;;;4.7;3.3;;;;;;;-1.1;85.28223;934.4214;;;;
2021/01/20 07:41:30;;;;;;;6.9;3.3;;;;;;;-1.12;85.52441;934.4123;;;;
2021/01/20 07:43:55;;;;;;;3.7;2.6;;;;;;;-1.08;85.4873;934.2864;;;;
2021/01/20 07:46:20;;;;;;;5.6;3.4;;;;;;;-1.06;86.75781;934.3876;;;;
2021/01/20 07:48:45;;;;;;;3.8;2.4;;;;;;;-0.85;86.30078;934.3786;;;;
2021/01/20 07:51:10;;;;;;;4.5;3;;;;;;;-0.73;84.625;934.3059;;;;
2021/01/20 07:53:36;;;;;;;1.2;1;;;;;;;-0.5;82.91211;934.2742;;;;
2021/01/20 07:56:01;;;;;;;1.2;1.1;;;;;;;-0.2;81.84863;934.2575;;;;
2021/01/20 07:58:26;;;;;;;1.7;1.4;;;;;;;-0.04;81.62207;934.2623;;;;
2021/01/20 08:00:51;;;;;;;2;1.6;;;;;;;0.12;80.97168;934.2356;;;;
2021/01/20 08:03:16;;;;;;;1.2;1.1;;;;;;;0.29;80.50488;934.2227;;;;
2021/01/20 08:05:45;;;;;;;1.1;1;;;;;;;0.3;80.24902;934.162;;;;
2021/01/20 08:08:06;;;;;;;1.3;1.2;;;;;;;0.3;80.34863;934.1871;;;;
2021/01/20 08:10:32;;;;;;;2.1;1.4;;;;;;;0.4;80.02441;934.1383;;;;
2021/01/20 08:12:57;;;;;;;2.9;2.3;;;;;;;0.55;79.67188;934.192;;;;
2021/01/20 08:15:22;;;;;;;4.3;1.9;;;;;;;0.68;78.98145;934.256;;;;
2021/01/20 08:17:48;;;;;;;5.2;3.2;;;;;;;0.71;78.90137;934.1548;;;;
2021/01/20 08:20:14;;;;;;;4.9;2.7;;;;;;;0.98;77.91113;934.2004;;;;
2021/01/20 08:22:40;;;;;;;7.7;2.7;;;;;;;1.89;74.44434;934.1703;;;;
2021/01/20 08:25:04;;;;;;;3.5;1.6;;;;;;;2.69;71.69043;934.1384;;;;
2021/01/20 08:27:29;;;;;;;5.1;2.5;;;;;;;3.52;69.22461;934.137;;;;
2021/01/20 08:29:56;;;;;;;3.9;2;;;;;;;4.17;67.32813;934.1291;;;;
2021/01/20 08:32:21;;;;;;;4.2;2.6;;;;;;;4.16;65.29004;934.079;;;;
2021/01/20 08:34:46;;;;;;;4.6;1.9;;;;;;;4.82;63.3877;934.0978;;;;
2021/01/20 08:37:12;;;;;;;2.5;1.2;;;;;;;5.28;60.83887;934.0742;;;;
2021/01/20 08:39:37;;;;;;;1.5;1.4;;;;;;;6.17;59.13574;934.0916;;;;
2021/01/20 08:42:02;;;;;;;6.9;1.9;;;;;;;6.78;56.85352;934.0322;;;;
2021/01/20 08:44:27;;;;;;;3.1;1.9;;;;;;;6.95;55.91211;933.9409;;;;
2021/01/20 08:46:53;;;;;;;2.9;2.1;;;;;;;7.37;54.3584;934.0072;;;;
2021/01/20 08:49:17;;;;;;;4.5;2.1;;;;;;;7.27;55.17285;933.9402;;;;
2021/01/20 08:51:43;;;;;;;3.6;2.2;;;;;;;7.2;55.9668;933.9308;;;;
2021/01/20 08:54:08;;;;;;;3.2;1.7;;;;;;;7.13;55.98145;934.0027;;;;
2021/01/20 08:56:33;;;;;;;2.1;1.8;;;;;;;6.8;56.20898;934.0173;;;;
2021/01/20 08:58:58;;;;;;;3.1;1.1;;;;;;;6.33;58.16016;933.8987;;;;
2021/01/20 09:01:23;;;;;;;1.6;1.4;;;;;;;6.14;59.89746;933.8925;;;;
2021/01/20 09:03:48;;;;;;;1;0.8;;;;;;;5.59;60.84863;933.8845;;;;
2021/01/20 09:06:14;;;;;;;0.9;0.6;;;;;;;4.95;63.01172;933.8799;;;;
2021/01/20 09:08:40;;;;;;;2.5;1;;;;;;;4.97;64.24316;933.8347;;;;
2021/01/20 09:11:05;;;;;;;20;2.3;;;;;;;4.8;65.83984;933.8358;;;;
2021/01/20 09:13:31;;;;;;;3.7;1.7;;;;;;;4.37;67.4043;933.832;;;;
2021/01/20 09:15:57;;;;;;;3;1.7;;;;;;;3.93;69.33691;933.712;;;;
2021/01/20 09:18:22;;;;;;;2.4;1.2;;;;;;;3.69;70.58984;933.8013;;;;
2021/01/20 09:20:48;;;;;;;2.1;1.2;;;;;;;3.54;72.26074;933.6984;;;;
2021/01/20 09:23:13;;;;;;;1.9;1.4;;;;;;;3.52;72.85254;933.7026;;;;
2021/01/20 09:25:39;;;;;;;3.5;1;;;;;;;3.58;71.52637;933.6068;;;;
2021/01/20 09:28:04;;;;;;;1.1;0.9;;;;;;;3.69;70.05078;933.6234;;;;
2021/01/20 09:30:30;;;;;;;2.5;1.3;;;;;;;3.63;68.28711;933.5666;;;;
2021/01/20 09:32:55;;;;;;;1.1;0.6;;;;;;;3.8;69.81152;933.5926;;;;
2021/01/20 09:35:21;;;;;;;3.6;2;;;;;;;3.79;70.82129;933.5223;;;;
2021/01/20 09:37:47;;;;;;;1.2;1.1;;;;;;;3.8;70.78906;933.4756;;;;
2021/01/20 09:40:12;;;;;;;1.3;1.2;;;;;;;3.92;71.00977;933.4763;;;;
2021/01/20 09:42:37;;;;;;;3;1;;;;;;;3.79;71.54102;933.3821;;;;
2021/01/20 09:45:02;;;;;;;2.3;1.4;;;;;;;3.54;73.32715;933.3994;;;;
2021/01/20 09:47:27;;;;;;;1.1;1;;;;;;;3.42;73.65723;933.4048;;;;
2021/01/20 09:49:52;;;;;;;1.4;1.3;;;;;;;3.53;73.33691;933.4031;;;;
2021/01/20 09:52:20;;;;;;;5.9;1.6;;;;;;;3.57;72.55859;933.2609;;;;
2021/01/20 09:54:44;;;;;;;0.5;0.5;;;;;;;3.55;72.60059;933.2541;;;;
2021/01/20 09:57:10;;;;;;;3.2;1.7;;;;;;;3.61;73.39746;933.1986;;;;
2021/01/20 09:59:35;;;;;;;3.5;2.2;;;;;;;3.44;73.85156;933.1731;;;;
2021/01/20 10:02:02;;;;;;;3.9;1.4;;;;;;;3.41;75.12305;933.0982;;;;
2021/01/20 10:04:27;;;;;;;1.7;1.3;;;;;;;3.49;74.79102;933.0611;;;;
2021/01/20 10:06:53;;;;;;;1.6;1.3;;;;;;;3.4;75.67383;933.0598;;;;
2021/01/20 10:09:17;;;;;;;2;1.8;;;;;;;3.44;75.92676;933.0266;;;;
2021/01/20 10:11:42;;;;;;;1.8;1.3;;;;;;;3.36;76.54297;932.9095;;;;
2021/01/20 10:14:08;;;;;;;0.8;0.8;;;;;;;3.25;77.71191;932.9654;;;;
2021/01/20 10:16:33;;;;;;;2.9;1.2;;;;;;;3.39;77.98535;932.8543;;;;
2021/01/20 10:18:59;;;;;;;1.4;1.1;;;;;;;3.41;78.42676;932.8387;;;;
2021/01/20 10:21:24;;;;;;;1;0.9;;;;;;;3.54;78.1123;932.6775;;;;
2021/01/20 10:23:51;;;;;;;0.8;0.7;;;;;;;3.55;77.18359;932.663;;;;
2021/01/20 10:26:16;;;;;;;0.9;0.7;;;;;;;3.64;76.86133;932.6656;;;;
2021/01/20 10:28:42;;;;;;;1.2;0.9;;;;;;;3.91;76.18164;932.6256;;;;
2021/01/20 10:31:07;;;;;;;1.7;1.1;;;;;;;3.95;76.38965;932.6021;;;;
2021/01/20 10:33:34;;;;;;;3;1.1;;;;;;;4.01;76.97461;932.5811;;;;
2021/01/20 10:35:59;;;;;;;9;1.6;;;;;;;4.13;76.61523;932.5123;;;;
2021/01/20 10:38:25;;;;;;;2.5;1.3;;;;;;;4.25;76.84863;932.4224;;;;
2021/01/20 10:40:50;;;;;;;2.1;1;;;;;;;4.27;76.66016;932.3653;;;;
2021/01/20 10:43:17;;;;;;;4;1.5;;;;;;;4.47;76.29297;932.3072;;;;
2021/01/20 10:45:44;;;;;;;0.9;0.9;;;;;;;4.62;74.86523;932.1939;;;;
2021/01/20 10:48:08;;;;;;;5.2;2;;;;;;;4.62;75.59766;932.1995;;;;
2021/01/20 10:50:33;;;;;;;1.9;1.6;;;;;;;4.68;75.80957;932.1763;;;;
2021/01/20 10:52:59;;;;;;;2.3;1.3;;;;;;;4.51;76.35547;932.1244;;;;
2021/01/20 10:55:24;;;;;;;1.9;1.5;;;;;;;4.6;77.25;932.0726;;;;
2021/01/20 10:57:49;;;;;;;2.3;1.5;;;;;;;4.67;76.67773;931.9822;;;;
2021/01/20 11:00:14;;;;;;;2.3;1.7;;;;;;;4.9;76.00977;931.9344;;;;
2021/01/20 11:02:41;;;;;;;1.4;1.3;;;;;;;4.82;75.7002;931.9374;;;;
2021/01/20 11:05:06;;;;;;;2.8;1.9;;;;;;;4.77;76.40039;931.9092;;;;
2021/01/20 11:07:31;;;;;;;2.9;1.9;;;;;;;4.96;76.0625;931.8574;;;;
2021/01/20 11:09:58;;;;;;;2.3;1.3;;;;;;;5.15;75.08496;931.8678;;;;
2021/01/20 11:12:21;;;;;;;4.3;2.7;;;;;;;5.15;75.53613;931.7952;;;;
2021/01/20 11:14:48;;;;;;;8.9;3.3;;;;;;;5.35;75.01855;931.7432;;;;
2021/01/20 11:17:13;;;;;;;4.6;2.7;;;;;;;5.28;74.9375;931.6835;;;;
2021/01/20 11:19:40;;;;;;;3.3;1.6;;;;;;;5.46;74.38086;931.6379;;;;
2021/01/20 11:22:07;;;;;;;1.9;1.5;;;;;;;5.6;73.93066;931.6395;;;;
2021/01/20 11:24:32;;;;;;;8.6;3;;;;;;;5.8;73.37988;931.5597;;;;
2021/01/20 11:26:57;;;;;;;3.2;2.2;;;;;;;5.92;73.03809;931.585;;;;
2021/01/20 11:29:24;;;;;;;4.1;2.4;;;;;;;6.16;72.63867;931.4207;;;;
2021/01/20 11:31:50;;;;;;;3.1;1.6;;;;;;;6.24;72.07617;931.4869;;;;
2021/01/20 11:34:14;;;;;;;4.5;2.6;;;;;;;6.26;72.30371;931.3986;;;;
2021/01/20 11:36:39;;;;;;;7.1;2.4;;;;;;;6.33;71.49219;931.3522;;;;
2021/01/20 11:39:05;;;;;;;2.4;1.5;;;;;;;6.33;71.42285;931.4003;;;;
2021/01/20 11:41:30;;;;;;;2.1;1.3;;;;;;;6.43;70.88672;931.3072;;;;
2021/01/20 11:43:59;;;;;;;1.7;1.3;;;;;;;6.45;71.77148;931.2711;;;;
2021/01/20 11:46:26;;;;;;;2.4;1.9;;;;;;;6.5;71.37207;931.2307;;;;
2021/01/20 11:48:50;;;;;;;3.9;1.6;;;;;;;6.67;70.22363;931.0914;;;;
2021/01/20 11:51:15;;;;;;;3.9;3;;;;;;;6.72;70.42578;931.1514;;;;
2021/01/20 11:53:40;;;;;;;2.1;1.9;;;;;;;6.68;70.45215;931.0804;;;;
2021/01/20 11:56:05;;;;;;;1.9;1.5;;;;;;;6.53;70.76758;931.0175;;;;
2021/01/20 11:58:30;;;;;;;4.1;1.9;;;;;;;6.4;71.59473;930.9278;;;;
2021/01/20 12:00:55;;;;;;;1;0.8;;;;;;;6.39;72.03223;931.0058;;;;
2021/01/20 12:03:20;;;;;;;2.5;1.5;;;;;;;6.61;71.75391;930.9832;;;;
2021/01/20 12:05:45;;;;;;;5.6;1;;;;;;;6.65;71.19531;931.0106;;;;
2021/01/20 12:08:10;;;;;;;1.3;1.1;;;;;;;6.75;70.96191;930.9412;;;;
2021/01/20 12:10:38;;;;;;;2.5;1.4;;;;;;;6.88;71.77637;930.8964;;;;
2021/01/20 12:13:03;;;;;;;1.8;1.3;;;;;;;6.93;70.14258;930.8479;;;;
2021/01/20 12:15:28;;;;;;;3.1;1.2;;;;;;;6.96;69.93359;930.72;;;;
2021/01/20 12:17:53;;;;;;;1;0.9;;;;;;;6.92;68.21582;930.7022;;;;
2021/01/20 12:20:19;;;;;;;3;0.6;;;;;;;6.91;68.07715;930.5319;;;;
2021/01/20 12:22:44;;;;;;;3.8;0.9;;;;;;;6.98;68.38281;930.5627;;;;
2021/01/20 12:25:10;;;;;;;0.9;0.7;;;;;;;7.21;68.69141;930.4353;;;;
2021/01/20 12:27:37;;;;;;;4;1.6;;;;;;;7.25;68.36035;930.4749;;;;
2021/01/20 12:30:01;;;;;;;4.1;2;;;;;;;7.28;67.95605;930.4127;;;;
2021/01/20 12:32:26;;;;;;;5.2;2.4;;;;;;;7.18;66.58008;930.3473;;;;
2021/01/20 12:34:53;;;;;;;3.2;2.1;;;;;;;7.28;65.41797;930.373;;;;
2021/01/20 12:37:18;;;;;;;1.7;1.4;;;;;;;7.29;68.00488;930.4214;;;;
2021/01/20 12:39:45;;;;;;;2.2;0.6;;;;;;;7.26;65.03027;930.3586;;;;
2021/01/20 12:42:10;;;;;;;1.5;1.1;;;;;;;7.37;63.76465;930.3412;;;;
2021/01/20 12:44:38;;;;;;;3.2;1;;;;;;;7.41;64.12109;930.2355;;;;
2021/01/20 12:47:03;;;;;;;0.3;0.3;;;;;;;7.43;61.99414;930.2375;;;;
2021/01/20 12:49:28;;;;;;;1.6;0.9;;;;;;;7.76;63.85645;930.2601;;;;
2021/01/20 12:51:53;;;;;;;9.8;2.2;;;;;;;8.04;63.98926;930.2292;;;;
2021/01/20 12:54:20;;;;;;;4.1;1.2;;;;;;;7.93;61.73828;930.1989;;;;
2021/01/20 12:56:44;;;;;;;8;2.3;;;;;;;8.05;62.67383;930.1967;;;;
2021/01/20 12:59:10;;;;;;;1.4;0.9;;;;;;;7.97;65.20508;930.1523;;;;
2021/01/20 13:01:35;;;;;;;6.8;0.9;;;;;;;8.24;62.71289;930.1211;;;;
2021/01/20 13:04:03;;;;;;;1.2;1;;;;;;;8.22;64.14063;930.1305;;;;
2021/01/20 13:06:27;;;;;;;1.8;1.5;;;;;;;8.17;68.82324;930.0966;;;;
2021/01/20 13:08:52;;;;;;;0.9;0.6;;;;;;;7.83;67.21484;930.0651;;;;
2021/01/20 13:11:18;;;;;;;0.4;0.4;;;;;;;7.76;69.09863;930.012;;;;
2021/01/20 13:13:43;;;;;;;1.9;0.5;;;;;;;7.72;66.46094;929.992;;;;
2021/01/20 13:16:08;;;;;;;0.4;0.4;;;;;;;7.85;67.23926;929.9582;;;;
2021/01/20 13:18:34;;;;;;;1.6;0.9;;;;;;;7.98;63.46973;929.9051;;;;
2021/01/20 13:21:00;;;;;;;1;0.9;;;;;;;7.99;65.61621;929.9083;;;;
2021/01/20 13:23:26;;;;;;;1.1;1;;;;;;;8.19;66.62305;929.8636;;;;
2021/01/20 13:25:52;;;;;;;1.1;0.9;;;;;;;8.37;64.78809;929.8943;;;;
2021/01/20 13:28:17;;;;;;;19;3.2;;;;;;;8.52;63.68555;929.8206;;;;
2021/01/20 13:30:44;;;;;;;1.3;0.9;;;;;;;8.49;63.08008;929.8459;;;;
2021/01/20 13:33:08;;;;;;;1.6;0.9;;;;;;;8.59;66.36816;929.7661;;;;
2021/01/20 13:35:39;;;;;;;1.1;1;;;;;;;8.86;66.02148;929.7347;;;;
2021/01/20 13:38:05;;;;;;;2.8;1.1;;;;;;;8.86;62.70215;929.772;;;;
2021/01/20 13:40:30;;;;;;;1.5;0.9;;;;;;;8.65;67.64941;929.6926;;;;
2021/01/20 13:42:56;;;;;;;0.1;0.1;;;;;;;8.46;68.5752;929.7196;;;;
2021/01/20 13:45:23;;;;;;;0.7;0.5;;;;;;;8.44;67.98047;929.641;;;;
2021/01/20 13:47:47;;;;;;;0.7;0.5;;;;;;;8.5;68.75195;929.6333;;;;
2021/01/20 13:50:12;;;;;;;0.4;0.4;;;;;;;8.58;68.00293;929.6803;;;;
2021/01/20 13:52:38;;;;;;;4.2;1.2;;;;;;;8.49;67.96484;929.5928;;;;
2021/01/20 13:55:03;;;;;;;5.7;2;;;;;;;8.43;63.72949;929.5006;;;;
2021/01/20 13:57:30;;;;;;;5.6;3.8;;;;;;;8.63;63.23633;929.5363;;;;
2021/01/20 13:59:55;;;;;;;3.9;1.7;;;;;;;8.68;63.08301;929.5349;;;;
2021/01/20 14:02:21;;;;;;;5;1.9;;;;;;;9;60.16309;929.4246;;;;
2021/01/20 14:04:47;;;;;;;1.8;1.3;;;;;;;9.16;61.49316;929.4559;;;;
2021/01/20 14:07:14;;;;;;;3.1;1.3;;;;;;;9.26;62.57715;929.4299;;;;
2021/01/20 14:09:39;;;;;;;3.5;1.6;;;;;;;9.51;60.88184;929.4451;;;;
2021/01/20 14:12:04;;;;;;;2.6;2.2;;;;;;;9.81;59.8418;929.4294;;;;
2021/01/20 14:14:32;;;;;;;2.5;1.2;;;;;;;10.07;59.03418;929.3884;;;;
2021/01/20 14:16:54;;;;;;;3.1;1.2;;;;;;;10.49;57.60645;929.2992;;;;
2021/01/20 14:19:19;;;;;;;1.7;1.3;;;;;;;9.98;59.48926;929.3812;;;;
2021/01/20 14:21:44;;;;;;;3;1.3;;;;;;;9.62;61.33105;929.3904;;;;
2021/01/20 14:24:10;;;;;;;2;1.2;;;;;;;8.99;62.68555;929.3363;;;;
2021/01/20 14:26:35;;;;;;;2.2;1.2;;;;;;;8.88;63.64844;929.3656;;;;
2021/01/20 14:29:00;;;;;;;1.8;1.2;;;;;;;8.85;62.5752;929.31;;;;
2021/01/20 14:31:25;;;;;;;3.8;1.7;;;;;;;9.11;62.52148;929.3248;;;;
2021/01/20 14:33:51;;;;;;;4.3;1.4;;;;;;;8.92;64.39355;929.3236;;;;
2021/01/20 14:36:16;;;;;;;0.8;0.5;;;;;;;8.92;65.33887;929.3664;;;;
2021/01/20 14:38:42;;;;;;;0.8;0.5;;;;;;;9.01;65.14648;929.2684;;;;
2021/01/20 14:41:08;;;;;;;1.4;0.5;;;;;;;9.19;64.28516;929.2502;;;;
2021/01/20 14:43:33;;;;;;;0.9;0.6;;;;;;;9.41;62.91699;929.2321;;;;
2021/01/20 14:45:58;;;;;;;2.7;1.4;;;;;;;9.34;62.54395;929.2551;;;;
2021/01/20 14:48:23;;;;;;;4.6;1.5;;;;;;;8.76;64.66602;929.2072;;;;
2021/01/20 14:50:48;;;;;;;1.2;1.1;;;;;;;8.11;67.22461;929.2536;;;;
2021/01/20 14:53:14;;;;;;;1.6;1.2;;;;;;;7.61;69.10938;929.3234;;;;
2021/01/20 14:55:39;;;;;;;0.7;0.4;;;;;;;7.28;70.02832;929.3381;;;;
2021/01/20 14:58:04;;;;;;;8.3;4.3;;;;;;;6.89;72.45605;929.2743;;;;
2021/01/20 15:00:33;;;;;;;11.1;5.5;;;;;;;6.57;73.64648;929.3049;;;;
2021/01/20 15:02:58;;;;;;;10.7;5.2;;;;;;;6.19;74.98438;929.2815;;;;
2021/01/20 15:05:24;;;;;;;5.8;3.3;;;;;;;6.02;75.16992;929.3198;;;;
2021/01/20 15:07:49;;;;;;;10.9;5.1;;;;;;;5.84;76.1543;929.2263;;;;
2021/01/20 15:10:19;;;;;;;7.1;3.9;;;;;;;5.93;75.61719;929.3082;;;;
2021/01/20 15:12:43;;;;;;;7.5;4.1;;;;;;;5.8;76.09961;929.3613;;;;
2021/01/20 15:15:09;;;;;;;9.3;2.7;;;;;;;5.49;77.32031;929.2992;;;;
2021/01/20 15:17:34;;;;;;;5.4;2.6;;;;;;;5.35;78.2334;929.2079;;;;
2021/01/20 15:20:00;;;;;;;10.3;6.9;;;;;;;5.17;78.69434;929.4061;;;;
2021/01/20 15:22:24;;;;;;;3.6;2.4;;;;;;;5.09;79.34473;929.4869;;;;
2021/01/20 15:24:49;;;;;;;3.1;2.1;;;;;;;5.16;79.22266;929.4124;;;;
2021/01/20 15:27:14;;;;;;;8;3.8;;;;;;;4.98;79.4375;929.377;;;;
2021/01/20 15:29:41;;;;;;;4.9;3.2;;;;;;;4.88;79.33984;929.4857;;;;
2021/01/20 15:32:06;;;;;;;1.7;1.6;;;;;;;4.65;80.01758;929.4997;;;;
2021/01/20 15:34:32;;;;;;;2.7;1.8;;;;;;;4.64;80.73633;929.3986;;;;
2021/01/20 15:36:57;;;;;;;2.6;1.9;;;;;;;4.52;81.01855;929.3035;;;;